Aktuální počasí v Česku a ve světě - METAR

Seznam meteostanic umístěných nejčasteji na letišti v ČR a ve světě

Vyhledat místa podle abecedy:
A B C D E F G H I J K L M N O P Q R S T U V W X Y Z

Filtrovat:

ID stanice:
a/nebo
Název místa (fulltext):
 
Místo (ID)Naposledy načteno 
Zadar (LDZD) 18.06.2021 08:00 UTC Zobrazit METAR
LDZD 180800Z VRB03KT 9999 FEW050 27/12 Q1017 NOSIG
Zagreb (LDZA) 18.06.2021 08:00 UTC Zobrazit METAR
LDZA 180800Z VRB01KT CAVOK 25/18 Q1017 NOSIG
Zaragoza (LEZG) 18.06.2021 08:00 UTC Zobrazit METAR
LEZG 180800Z 09006KT 9000 FEW007 19/16 Q1015
Zhezkazgan (UAKD) Zatím nenačteno  
Zurich (LSZH) 18.06.2021 07:50 UTC Zobrazit METAR
LSZH 180750Z VRB02KT CAVOK 25/15 Q1016 NOSIG
Reklama

Reklama


Newslettter

Počasí na Váš email

Emaily jsou bez reklamy a bez spamu



Odhlásit newsletter



Kontaktujte nás

Kontaktujte Slunečno.cz

Kontaktujte provozovatele Slunecno.cz

Další české internetové stránky (nejen) o počasí najdete v katalogu TOPlist - weby o počasí nebo vyhledejte na internetu, co jste tu na Počasí Slunečno Slunečnu zatím nenašli:
Přidat mezzi oblíbené stránkyPřidat Slunečno.cz do oblíbených | Nastavit jako HOMEPAGENastavit Slunečno.cz jako HOMEPAGE

Posunout stránku nahoru Posunout stránku nahoru Posunout stránku nahoru
Reklama